sensor_id;sensor_type;location;lat;lon;timestamp;temperature;humidity
31207;DHT22;17834;52.992;8.856;2023-07-13T00:02:00;14.00;99.90
31207;DHT22;17834;52.992;8.856;2023-07-13T00:04:26;14.10;99.90
31207;DHT22;17834;52.992;8.856;2023-07-13T00:06:51;14.00;99.90
31207;DHT22;17834;52.992;8.856;2023-07-13T00:09:18;14.00;99.90
31207;DHT22;17834;52.992;8.856;2023-07-13T00:11:44;14.00;99.90
31207;DHT22;17834;52.992;8.856;2023-07-13T00:14:13;13.90;99.90
31207;DHT22;17834;52.992;8.856;2023-07-13T00:16:39;13.90;99.90
31207;DHT22;17834;52.992;8.856;2023-07-13T00:19:09;13.90;99.90
31207;DHT22;17834;52.992;8.856;2023-07-13T00:21:35;13.80;99.90
31207;DHT22;17834;52.992;8.856;2023-07-13T00:24:01;13.90;99.90
31207;DHT22;17834;52.992;8.856;2023-07-13T00:26:27;13.80;99.90
31207;DHT22;17834;52.992;8.856;2023-07-13T00:28:52;13.80;99.90
31207;DHT22;17834;52.992;8.856;2023-07-13T00:31:18;13.80;99.90
31207;DHT22;17834;52.992;8.856;2023-07-13T00:33:44;13.80;99.90
31207;DHT22;17834;52.992;8.856;2023-07-13T00:36:10;13.80;99.90
31207;DHT22;17834;52.992;8.856;2023-07-13T00:38:36;13.80;99.90
31207;DHT22;17834;52.992;8.856;2023-07-13T00:41:03;13.80;99.90
31207;DHT22;17834;52.992;8.856;2023-07-13T00:43:29;13.70;99.90
31207;DHT22;17834;52.992;8.856;2023-07-13T00:48:27;13.70;99.90
31207;DHT22;17834;52.992;8.856;2023-07-13T00:50:56;13.70;99.90
31207;DHT22;17834;52.992;8.856;2023-07-13T00:53:25;13.70;99.90
31207;DHT22;17834;52.992;8.856;2023-07-13T00:55:53;13.70;99.90
31207;DHT22;17834;52.992;8.856;2023-07-13T00:58:20;13.60;99.90
31207;DHT22;17834;52.992;8.856;2023-07-13T01:00:47;13.60;99.90
31207;DHT22;17834;52.992;8.856;2023-07-13T01:03:14;13.60;99.90
31207;DHT22;17834;52.992;8.856;2023-07-13T01:05:39;13.50;99.90
31207;DHT22;17834;52.992;8.856;2023-07-13T01:08:05;13.50;99.90
31207;DHT22;17834;52.992;8.856;2023-07-13T01:10:31;13.50;99.90
31207;DHT22;17834;52.992;8.856;2023-07-13T01:13:05;13.50;99.90
31207;DHT22;17834;52.992;8.856;2023-07-13T01:15:43;13.50;99.90
31207;DHT22;17834;52.992;8.856;2023-07-13T01:18:29;13.50;99.90
31207;DHT22;17834;52.992;8.856;2023-07-13T01:21:02;13.50;99.90
31207;DHT22;17834;52.992;8.856;2023-07-13T01:23:29;13.50;99.90
31207;DHT22;17834;52.992;8.856;2023-07-13T01:25:56;13.50;99.90
31207;DHT22;17834;52.992;8.856;2023-07-13T01:28:23;13.40;99.90
31207;DHT22;17834;52.992;8.856;2023-07-13T01:30:53;13.40;99.90
31207;DHT22;17834;52.992;8.856;2023-07-13T01:33:19;13.40;99.90
31207;DHT22;17834;52.992;8.856;2023-07-13T01:35:46;13.30;99.90
31207;DHT22;17834;52.992;8.856;2023-07-13T01:38:14;13.40;99.90
31207;DHT22;17834;52.992;8.856;2023-07-13T01:40:40;13.30;99.90
31207;DHT22;17834;52.992;8.856;2023-07-13T01:43:05;13.30;99.90
31207;DHT22;17834;52.992;8.856;2023-07-13T01:45:31;13.30;99.90
31207;DHT22;17834;52.992;8.856;2023-07-13T01:47:57;13.30;99.90
31207;DHT22;17834;52.992;8.856;2023-07-13T01:50:23;13.30;99.90
31207;DHT22;17834;52.992;8.856;2023-07-13T01:52:49;13.30;99.90
31207;DHT22;17834;52.992;8.856;2023-07-13T01:55:14;13.30;99.90
31207;DHT22;17834;52.992;8.856;2023-07-13T01:57:40;13.30;99.90
31207;DHT22;17834;52.992;8.856;2023-07-13T02:00:10;13.30;99.90
31207;DHT22;17834;52.992;8.856;2023-07-13T02:02:36;13.30;99.90
31207;DHT22;17834;52.992;8.856;2023-07-13T02:05:01;13.30;99.90
31207;DHT22;17834;52.992;8.856;2023-07-13T02:07:27;13.40;99.90
31207;DHT22;17834;52.992;8.856;2023-07-13T02:09:53;13.40;99.90
31207;DHT22;17834;52.992;8.856;2023-07-13T02:12:19;13.40;99.90
31207;DHT22;17834;52.992;8.856;2023-07-13T02:14:44;13.40;99.90
31207;DHT22;17834;52.992;8.856;2023-07-13T02:17:10;13.40;99.90
31207;DHT22;17834;52.992;8.856;2023-07-13T02:19:36;13.40;99.90
31207;DHT22;17834;52.992;8.856;2023-07-13T02:22:01;13.40;99.90
31207;DHT22;17834;52.992;8.856;2023-07-13T02:24:27;13.40;99.90
31207;DHT22;17834;52.992;8.856;2023-07-13T02:26:52;13.40;99.90
31207;DHT22;17834;52.992;8.856;2023-07-13T02:29:18;13.40;99.90
31207;DHT22;17834;52.992;8.856;2023-07-13T02:31:43;13.40;99.90
31207;DHT22;17834;52.992;8.856;2023-07-13T02:34:09;13.40;99.90
31207;DHT22;17834;52.992;8.856;2023-07-13T02:36:35;13.40;99.90
31207;DHT22;17834;52.992;8.856;2023-07-13T02:39:02;13.40;99.90
31207;DHT22;17834;52.992;8.856;2023-07-13T02:41:28;13.40;99.90
31207;DHT22;17834;52.992;8.856;2023-07-13T02:43:54;13.40;99.90
31207;DHT22;17834;52.992;8.856;2023-07-13T02:46:28;13.30;99.90
31207;DHT22;17834;52.992;8.856;2023-07-13T02:48:53;13.30;99.90
31207;DHT22;17834;52.992;8.856;2023-07-13T02:51:19;13.30;99.90
31207;DHT22;17834;52.992;8.856;2023-07-13T02:53:45;13.30;99.90
31207;DHT22;17834;52.992;8.856;2023-07-13T02:56:10;13.20;99.90
31207;DHT22;17834;52.992;8.856;2023-07-13T02:58:36;13.20;99.90
31207;DHT22;17834;52.992;8.856;2023-07-13T03:01:07;13.20;99.90
31207;DHT22;17834;52.992;8.856;2023-07-13T03:03:33;13.20;99.90
31207;DHT22;17834;52.992;8.856;2023-07-13T03:06:00;13.20;99.90
31207;DHT22;17834;52.992;8.856;2023-07-13T03:08:27;13.20;99.90
31207;DHT22;17834;52.992;8.856;2023-07-13T03:11:00;13.20;99.90
31207;DHT22;17834;52.992;8.856;2023-07-13T03:13:26;13.20;99.90
31207;DHT22;17834;52.992;8.856;2023-07-13T03:15:51;13.30;99.90
31207;DHT22;17834;52.992;8.856;2023-07-13T03:18:17;13.40;99.90
31207;DHT22;17834;52.992;8.856;2023-07-13T03:20:42;13.50;99.90
31207;DHT22;17834;52.992;8.856;2023-07-13T03:23:08;13.60;99.90
31207;DHT22;17834;52.992;8.856;2023-07-13T03:25:33;13.60;99.90
31207;DHT22;17834;52.992;8.856;2023-07-13T03:27:59;13.70;99.90
31207;DHT22;17834;52.992;8.856;2023-07-13T03:30:24;13.80;99.90
31207;DHT22;17834;52.992;8.856;2023-07-13T03:32:49;13.80;99.90
31207;DHT22;17834;52.992;8.856;2023-07-13T03:35:15;13.90;99.90
31207;DHT22;17834;52.992;8.856;2023-07-13T03:37:41;14.00;99.90
31207;DHT22;17834;52.992;8.856;2023-07-13T03:40:09;14.10;99.90
31207;DHT22;17834;52.992;8.856;2023-07-13T03:42:35;14.10;99.90
31207;DHT22;17834;52.992;8.856;2023-07-13T03:45:01;14.10;99.90
31207;DHT22;17834;52.992;8.856;2023-07-13T03:47:26;14.20;99.90
31207;DHT22;17834;52.992;8.856;2023-07-13T03:49:52;14.20;99.90
31207;DHT22;17834;52.992;8.856;2023-07-13T03:52:18;14.30;99.90
31207;DHT22;17834;52.992;8.856;2023-07-13T03:54:44;14.40;99.90
31207;DHT22;17834;52.992;8.856;2023-07-13T03:57:09;14.40;99.90
31207;DHT22;17834;52.992;8.856;2023-07-13T03:59:35;14.40;99.90
31207;DHT22;17834;52.992;8.856;2023-07-13T04:02:01;14.50;99.90
31207;DHT22;17834;52.992;8.856;2023-07-13T04:04:26;14.50;99.90
31207;DHT22;17834;52.992;8.856;2023-07-13T04:06:52;14.50;99.90
31207;DHT22;17834;52.992;8.856;2023-07-13T04:09:18;14.50;99.90
31207;DHT22;17834;52.992;8.856;2023-07-13T04:11:44;14.60;99.90
31207;DHT22;17834;52.992;8.856;2023-07-13T04:14:10;14.60;99.90
31207;DHT22;17834;52.992;8.856;2023-07-13T04:16:35;14.70;99.90
31207;DHT22;17834;52.992;8.856;2023-07-13T04:19:01;14.70;99.90
31207;DHT22;17834;52.992;8.856;2023-07-13T04:21:28;14.70;99.90
31207;DHT22;17834;52.992;8.856;2023-07-13T04:23:56;14.80;99.90
31207;DHT22;17834;52.992;8.856;2023-07-13T04:26:22;14.90;99.90
31207;DHT22;17834;52.992;8.856;2023-07-13T04:28:49;14.90;99.90
31207;DHT22;17834;52.992;8.856;2023-07-13T04:31:16;15.00;99.90
31207;DHT22;17834;52.992;8.856;2023-07-13T04:33:41;15.10;99.90
31207;DHT22;17834;52.992;8.856;2023-07-13T04:36:09;15.10;99.90
31207;DHT22;17834;52.992;8.856;2023-07-13T04:38:35;15.20;99.90
31207;DHT22;17834;52.992;8.856;2023-07-13T04:41:03;15.30;99.90
31207;DHT22;17834;52.992;8.856;2023-07-13T04:43:30;15.40;99.90
31207;DHT22;17834;52.992;8.856;2023-07-13T04:45:56;15.60;99.90
31207;DHT22;17834;52.992;8.856;2023-07-13T04:48:22;15.60;99.90
31207;DHT22;17834;52.992;8.856;2023-07-13T04:50:57;15.70;99.90
31207;DHT22;17834;52.992;8.856;2023-07-13T04:53:23;15.90;99.90
31207;DHT22;17834;52.992;8.856;2023-07-13T04:55:48;16.10;99.90
31207;DHT22;17834;52.992;8.856;2023-07-13T04:58:14;16.30;99.90
31207;DHT22;17834;52.992;8.856;2023-07-13T05:00:39;16.40;99.90
31207;DHT22;17834;52.992;8.856;2023-07-13T05:03:05;16.50;99.90
31207;DHT22;17834;52.992;8.856;2023-07-13T05:05:31;16.70;99.90
31207;DHT22;17834;52.992;8.856;2023-07-13T05:07:56;16.90;99.90
31207;DHT22;17834;52.992;8.856;2023-07-13T05:10:22;17.10;99.90
31207;DHT22;17834;52.992;8.856;2023-07-13T05:12:48;17.30;99.90
31207;DHT22;17834;52.992;8.856;2023-07-13T05:15:13;17.40;99.90
31207;DHT22;17834;52.992;8.856;2023-07-13T05:17:39;17.60;99.90
31207;DHT22;17834;52.992;8.856;2023-07-13T05:20:07;17.70;99.90
31207;DHT22;17834;52.992;8.856;2023-07-13T05:22:32;17.80;99.90
31207;DHT22;17834;52.992;8.856;2023-07-13T05:25:00;17.90;99.90
31207;DHT22;17834;52.992;8.856;2023-07-13T05:27:26;18.20;99.90
31207;DHT22;17834;52.992;8.856;2023-07-13T05:29:51;18.50;99.90
31207;DHT22;17834;52.992;8.856;2023-07-13T05:32:18;18.70;99.90
31207;DHT22;17834;52.992;8.856;2023-07-13T05:34:43;18.90;99.90
31207;DHT22;17834;52.992;8.856;2023-07-13T05:37:09;19.20;99.90
31207;DHT22;17834;52.992;8.856;2023-07-13T05:39:35;19.30;99.90
31207;DHT22;17834;52.992;8.856;2023-07-13T05:42:01;19.40;99.90
31207;DHT22;17834;52.992;8.856;2023-07-13T05:44:27;19.50;99.90
31207;DHT22;17834;52.992;8.856;2023-07-13T05:46:52;19.60;99.90
31207;DHT22;17834;52.992;8.856;2023-07-13T05:49:19;19.60;99.90
31207;DHT22;17834;52.992;8.856;2023-07-13T05:51:45;19.60;99.90
31207;DHT22;17834;52.992;8.856;2023-07-13T05:54:10;19.80;99.90
31207;DHT22;17834;52.992;8.856;2023-07-13T05:56:36;20.80;99.90
31207;DHT22;17834;52.992;8.856;2023-07-13T05:59:01;22.50;99.90
31207;DHT22;17834;52.992;8.856;2023-07-13T06:01:27;24.10;99.90
31207;DHT22;17834;52.992;8.856;2023-07-13T06:03:52;24.90;99.90
31207;DHT22;17834;52.992;8.856;2023-07-13T06:06:17;25.20;98.60
31207;DHT22;17834;52.992;8.856;2023-07-13T06:08:43;25.20;95.60
31207;DHT22;17834;52.992;8.856;2023-07-13T06:11:18;25.60;95.30
31207;DHT22;17834;52.992;8.856;2023-07-13T06:13:44;26.60;86.50
31207;DHT22;17834;52.992;8.856;2023-07-13T06:16:10;27.70;75.90
31207;DHT22;17834;52.992;8.856;2023-07-13T06:18:36;28.40;69.00
31207;DHT22;17834;52.992;8.856;2023-07-13T06:21:09;28.80;61.90
31207;DHT22;17834;52.992;8.856;2023-07-13T06:23:35;29.30;61.10
31207;DHT22;17834;52.992;8.856;2023-07-13T06:26:00;30.00;60.60
31207;DHT22;17834;52.992;8.856;2023-07-13T06:28:26;30.30;56.80
31207;DHT22;17834;52.992;8.856;2023-07-13T06:30:51;30.80;57.50
31207;DHT22;17834;52.992;8.856;2023-07-13T06:33:16;31.40;55.80
31207;DHT22;17834;52.992;8.856;2023-07-13T06:35:42;30.90;53.10
31207;DHT22;17834;52.992;8.856;2023-07-13T06:38:08;29.70;55.60
31207;DHT22;17834;52.992;8.856;2023-07-13T06:40:33;28.30;59.20
31207;DHT22;17834;52.992;8.856;2023-07-13T06:42:59;28.00;60.80
31207;DHT22;17834;52.992;8.856;2023-07-13T06:45:24;28.90;60.40
31207;DHT22;17834;52.992;8.856;2023-07-13T06:47:50;29.70;58.20
31207;DHT22;17834;52.992;8.856;2023-07-13T06:50:15;30.80;56.50
31207;DHT22;17834;52.992;8.856;2023-07-13T06:52:41;31.50;54.60
31207;DHT22;17834;52.992;8.856;2023-07-13T06:55:06;31.20;54.20
31207;DHT22;17834;52.992;8.856;2023-07-13T06:57:32;30.90;53.80
31207;DHT22;17834;52.992;8.856;2023-07-13T06:59:58;30.60;54.20
31207;DHT22;17834;52.992;8.856;2023-07-13T07:02:23;30.50;56.00
31207;DHT22;17834;52.992;8.856;2023-07-13T07:04:49;30.50;56.20
31207;DHT22;17834;52.992;8.856;2023-07-13T07:07:15;30.60;54.40
31207;DHT22;17834;52.992;8.856;2023-07-13T07:09:41;30.60;55.80
31207;DHT22;17834;52.992;8.856;2023-07-13T07:12:06;31.20;55.30
31207;DHT22;17834;52.992;8.856;2023-07-13T07:14:32;31.50;54.10
31207;DHT22;17834;52.992;8.856;2023-07-13T07:16:59;32.00;51.90
31207;DHT22;17834;52.992;8.856;2023-07-13T07:19:25;32.20;52.70
31207;DHT22;17834;52.992;8.856;2023-07-13T07:21:50;32.40;51.70
31207;DHT22;17834;52.992;8.856;2023-07-13T07:24:16;32.70;50.70
31207;DHT22;17834;52.992;8.856;2023-07-13T07:26:41;32.90;51.40
31207;DHT22;17834;52.992;8.856;2023-07-13T07:29:07;33.00;50.50
31207;DHT22;17834;52.992;8.856;2023-07-13T07:31:32;33.40;49.60
31207;DHT22;17834;52.992;8.856;2023-07-13T07:33:57;33.50;50.10
31207;DHT22;17834;52.992;8.856;2023-07-13T07:36:23;33.60;49.20
31207;DHT22;17834;52.992;8.856;2023-07-13T07:38:49;34.20;49.20
31207;DHT22;17834;52.992;8.856;2023-07-13T07:41:14;34.10;48.80
31207;DHT22;17834;52.992;8.856;2023-07-13T07:43:39;33.70;49.40
31207;DHT22;17834;52.992;8.856;2023-07-13T07:46:05;33.80;47.80
31207;DHT22;17834;52.992;8.856;2023-07-13T07:48:31;33.80;48.40
31207;DHT22;17834;52.992;8.856;2023-07-13T07:50:57;33.40;47.90
31207;DHT22;17834;52.992;8.856;2023-07-13T07:53:23;32.70;49.90
31207;DHT22;17834;52.992;8.856;2023-07-13T07:55:48;31.30;51.10
31207;DHT22;17834;52.992;8.856;2023-07-13T08:00:40;28.80;57.50
31207;DHT22;17834;52.992;8.856;2023-07-13T08:03:06;28.00;59.50
31207;DHT22;17834;52.992;8.856;2023-07-13T08:05:31;27.30;60.90
31207;DHT22;17834;52.992;8.856;2023-07-13T08:07:57;26.60;62.50
31207;DHT22;17834;52.992;8.856;2023-07-13T08:10:22;26.10;66.60
31207;DHT22;17834;52.992;8.856;2023-07-13T08:12:48;25.60;73.70
31207;DHT22;17834;52.992;8.856;2023-07-13T08:15:16;25.30;86.50
31207;DHT22;17834;52.992;8.856;2023-07-13T08:17:42;25.00;93.80
31207;DHT22;17834;52.992;8.856;2023-07-13T08:20:08;24.40;94.90
31207;DHT22;17834;52.992;8.856;2023-07-13T08:22:34;24.00;96.70
31207;DHT22;17834;52.992;8.856;2023-07-13T08:25:00;23.80;96.90
31207;DHT22;17834;52.992;8.856;2023-07-13T08:27:27;23.60;97.80
31207;DHT22;17834;52.992;8.856;2023-07-13T08:29:53;23.50;98.40
31207;DHT22;17834;52.992;8.856;2023-07-13T08:32:20;23.50;99.60
31207;DHT22;17834;52.992;8.856;2023-07-13T08:34:46;23.50;99.20
31207;DHT22;17834;52.992;8.856;2023-07-13T08:37:12;23.50;98.90
31207;DHT22;17834;52.992;8.856;2023-07-13T08:39:37;23.50;98.60
31207;DHT22;17834;52.992;8.856;2023-07-13T08:42:15;23.30;98.70
31207;DHT22;17834;52.992;8.856;2023-07-13T08:45:14;23.20;99.20
31207;DHT22;17834;52.992;8.856;2023-07-13T08:47:55;23.40;99.90
31207;DHT22;17834;52.992;8.856;2023-07-13T08:50:26;23.50;99.30
31207;DHT22;17834;52.992;8.856;2023-07-13T08:52:55;23.80;99.60
31207;DHT22;17834;52.992;8.856;2023-07-13T08:55:29;23.90;98.70
31207;DHT22;17834;52.992;8.856;2023-07-13T08:58:12;23.90;98.70
31207;DHT22;17834;52.992;8.856;2023-07-13T09:00:52;23.80;97.60
31207;DHT22;17834;52.992;8.856;2023-07-13T09:03:24;23.90;98.60
31207;DHT22;17834;52.992;8.856;2023-07-13T09:05:58;24.10;98.00
31207;DHT22;17834;52.992;8.856;2023-07-13T09:11:30;24.50;97.10
31207;DHT22;17834;52.992;8.856;2023-07-13T09:16:33;24.60;96.80
31207;DHT22;17834;52.992;8.856;2023-07-13T09:19:04;24.70;95.10
31207;DHT22;17834;52.992;8.856;2023-07-13T09:21:41;25.00;94.90
31207;DHT22;17834;52.992;8.856;2023-07-13T09:24:29;25.10;93.90
31207;DHT22;17834;52.992;8.856;2023-07-13T09:26:57;24.90;92.50
31207;DHT22;17834;52.992;8.856;2023-07-13T09:29:32;25.00;93.20
31207;DHT22;17834;52.992;8.856;2023-07-13T09:32:02;25.00;92.30
31207;DHT22;17834;52.992;8.856;2023-07-13T09:34:28;24.80;93.10
31207;DHT22;17834;52.992;8.856;2023-07-13T09:36:56;24.70;92.50
31207;DHT22;17834;52.992;8.856;2023-07-13T09:39:33;24.50;91.00
31207;DHT22;17834;52.992;8.856;2023-07-13T09:42:07;24.20;91.50
31207;DHT22;17834;52.992;8.856;2023-07-13T09:44:43;24.30;91.30
31207;DHT22;17834;52.992;8.856;2023-07-13T09:47:25;24.10;92.50
31207;DHT22;17834;52.992;8.856;2023-07-13T09:50:01;24.00;92.00
31207;DHT22;17834;52.992;8.856;2023-07-13T09:52:28;24.10;92.30
31207;DHT22;17834;52.992;8.856;2023-07-13T09:55:04;24.40;93.20
31207;DHT22;17834;52.992;8.856;2023-07-13T09:57:30;24.60;93.00
31207;DHT22;17834;52.992;8.856;2023-07-13T09:59:56;24.70;91.70
31207;DHT22;17834;52.992;8.856;2023-07-13T10:02:29;25.00;90.80
31207;DHT22;17834;52.992;8.856;2023-07-13T10:05:04;25.20;90.70
31207;DHT22;17834;52.992;8.856;2023-07-13T10:07:30;25.10;90.00
31207;DHT22;17834;52.992;8.856;2023-07-13T10:09:58;25.10;90.30
31207;DHT22;17834;52.992;8.856;2023-07-13T10:12:26;25.30;90.20
31207;DHT22;17834;52.992;8.856;2023-07-13T10:14:55;25.40;90.50
31207;DHT22;17834;52.992;8.856;2023-07-13T10:17:31;25.70;89.60
31207;DHT22;17834;52.992;8.856;2023-07-13T10:20:02;25.70;87.40
31207;DHT22;17834;52.992;8.856;2023-07-13T10:22:55;25.70;88.30
31207;DHT22;17834;52.992;8.856;2023-07-13T10:25:25;25.80;86.20
31207;DHT22;17834;52.992;8.856;2023-07-13T10:27:56;25.80;86.50
31207;DHT22;17834;52.992;8.856;2023-07-13T10:30:29;25.70;85.50
31207;DHT22;17834;52.992;8.856;2023-07-13T10:33:02;25.60;85.60
31207;DHT22;17834;52.992;8.856;2023-07-13T10:35:29;25.50;86.30
31207;DHT22;17834;52.992;8.856;2023-07-13T10:38:03;25.70;85.40
31207;DHT22;17834;52.992;8.856;2023-07-13T10:40:58;25.60;84.00
31207;DHT22;17834;52.992;8.856;2023-07-13T10:43:28;25.40;84.20
31207;DHT22;17834;52.992;8.856;2023-07-13T10:45:54;25.20;84.20
31207;DHT22;17834;52.992;8.856;2023-07-13T10:48:22;24.90;86.00
31207;DHT22;17834;52.992;8.856;2023-07-13T10:50:51;24.40;89.10
31207;DHT22;17834;52.992;8.856;2023-07-13T10:53:33;23.60;92.30
31207;DHT22;17834;52.992;8.856;2023-07-13T10:56:05;22.70;95.30
31207;DHT22;17834;52.992;8.856;2023-07-13T10:58:37;22.10;98.70
31207;DHT22;17834;52.992;8.856;2023-07-13T11:09:19;19.80;99.90
31207;DHT22;17834;52.992;8.856;2023-07-13T11:11:56;19.40;99.90
31207;DHT22;17834;52.992;8.856;2023-07-13T11:14:30;19.00;99.90
31207;DHT22;17834;52.992;8.856;2023-07-13T11:16:56;18.80;99.90
31207;DHT22;17834;52.992;8.856;2023-07-13T11:22:10;17.90;99.90
31207;DHT22;17834;52.992;8.856;2023-07-13T11:24:56;17.70;99.90
31207;DHT22;17834;52.992;8.856;2023-07-13T11:27:37;17.50;99.90
31207;DHT22;17834;52.992;8.856;2023-07-13T11:30:22;17.30;99.90
31207;DHT22;17834;52.992;8.856;2023-07-13T11:35:51;17.10;99.90
31207;DHT22;17834;52.992;8.856;2023-07-13T11:41:02;17.10;99.90
31207;DHT22;17834;52.992;8.856;2023-07-13T11:43:29;17.20;99.90
31207;DHT22;17834;52.992;8.856;2023-07-13T11:45:54;17.10;99.90
31207;DHT22;17834;52.992;8.856;2023-07-13T11:48:26;17.00;99.90
31207;DHT22;17834;52.992;8.856;2023-07-13T11:51:01;17.00;99.90
31207;DHT22;17834;52.992;8.856;2023-07-13T11:53:30;16.80;99.90
31207;DHT22;17834;52.992;8.856;2023-07-13T11:56:01;16.50;99.90
31207;DHT22;17834;52.992;8.856;2023-07-13T11:58:27;16.30;99.90
31207;DHT22;17834;52.992;8.856;2023-07-13T12:00:53;16.20;99.90
31207;DHT22;17834;52.992;8.856;2023-07-13T12:03:22;16.20;99.90
31207;DHT22;17834;52.992;8.856;2023-07-13T12:06:01;16.20;99.90
31207;DHT22;17834;52.992;8.856;2023-07-13T12:08:28;16.10;99.90
31207;DHT22;17834;52.992;8.856;2023-07-13T12:11:00;16.10;99.90
31207;DHT22;17834;52.992;8.856;2023-07-13T12:13:27;16.00;99.90
31207;DHT22;17834;52.992;8.856;2023-07-13T12:15:53;16.00;99.90
31207;DHT22;17834;52.992;8.856;2023-07-13T12:18:22;15.90;99.90
31207;DHT22;17834;52.992;8.856;2023-07-13T12:20:50;15.90;99.90
31207;DHT22;17834;52.992;8.856;2023-07-13T12:23:24;15.80;99.90
31207;DHT22;17834;52.992;8.856;2023-07-13T12:25:54;15.80;99.90
31207;DHT22;17834;52.992;8.856;2023-07-13T12:33:48;15.70;99.90
31207;DHT22;17834;52.992;8.856;2023-07-13T12:36:21;15.80;99.90
31207;DHT22;17834;52.992;8.856;2023-07-13T12:38:47;15.70;99.90
31207;DHT22;17834;52.992;8.856;2023-07-13T12:41:12;15.80;99.90
31207;DHT22;17834;52.992;8.856;2023-07-13T12:43:40;15.90;99.90
31207;DHT22;17834;52.992;8.856;2023-07-13T12:46:17;15.90;99.90
31207;DHT22;17834;52.992;8.856;2023-07-13T12:48:44;16.10;99.90
31207;DHT22;17834;52.992;8.856;2023-07-13T12:51:13;16.30;99.90
31207;DHT22;17834;52.992;8.856;2023-07-13T12:53:41;16.50;99.90
31207;DHT22;17834;52.992;8.856;2023-07-13T12:56:18;16.60;99.90
31207;DHT22;17834;52.992;8.856;2023-07-13T12:58:45;16.90;99.90
31207;DHT22;17834;52.992;8.856;2023-07-13T13:01:14;17.20;99.90
31207;DHT22;17834;52.992;8.856;2023-07-13T13:03:53;17.50;99.90
31207;DHT22;17834;52.992;8.856;2023-07-13T13:06:25;17.70;99.90
31207;DHT22;17834;52.992;8.856;2023-07-13T13:08:57;18.00;99.90
31207;DHT22;17834;52.992;8.856;2023-07-13T13:11:27;18.40;99.90
31207;DHT22;17834;52.992;8.856;2023-07-13T13:13:53;18.90;99.90
31207;DHT22;17834;52.992;8.856;2023-07-13T13:16:31;19.50;99.90
31207;DHT22;17834;52.992;8.856;2023-07-13T13:18:59;19.70;99.90
31207;DHT22;17834;52.992;8.856;2023-07-13T13:21:27;19.90;99.90
31207;DHT22;17834;52.992;8.856;2023-07-13T13:23:52;19.70;99.90
31207;DHT22;17834;52.992;8.856;2023-07-13T13:26:19;19.50;99.90
31207;DHT22;17834;52.992;8.856;2023-07-13T13:28:46;19.60;99.90
31207;DHT22;17834;52.992;8.856;2023-07-13T13:31:13;19.80;99.90
31207;DHT22;17834;52.992;8.856;2023-07-13T13:33:41;19.60;99.90
31207;DHT22;17834;52.992;8.856;2023-07-13T13:36:19;19.60;99.90
31207;DHT22;17834;52.992;8.856;2023-07-13T13:38:45;19.50;99.90
31207;DHT22;17834;52.992;8.856;2023-07-13T13:41:12;19.40;99.90
31207;DHT22;17834;52.992;8.856;2023-07-13T13:43:39;19.60;99.90
31207;DHT22;17834;52.992;8.856;2023-07-13T13:46:22;19.80;99.90
31207;DHT22;17834;52.992;8.856;2023-07-13T13:48:50;20.00;99.90
31207;DHT22;17834;52.992;8.856;2023-07-13T13:51:20;20.20;99.90
31207;DHT22;17834;52.992;8.856;2023-07-13T13:53:47;20.60;99.90
31207;DHT22;17834;52.992;8.856;2023-07-13T13:56:14;20.90;99.90
31207;DHT22;17834;52.992;8.856;2023-07-13T13:58:40;21.00;99.90
31207;DHT22;17834;52.992;8.856;2023-07-13T14:01:13;21.20;99.90
31207;DHT22;17834;52.992;8.856;2023-07-13T14:03:39;21.20;99.90
31207;DHT22;17834;52.992;8.856;2023-07-13T14:06:05;21.30;99.90
31207;DHT22;17834;52.992;8.856;2023-07-13T14:08:31;21.20;99.90
31207;DHT22;17834;52.992;8.856;2023-07-13T14:10:57;21.30;99.90
31207;DHT22;17834;52.992;8.856;2023-07-13T14:13:30;21.40;99.90
31207;DHT22;17834;52.992;8.856;2023-07-13T14:15:56;21.60;99.90
31207;DHT22;17834;52.992;8.856;2023-07-13T14:18:22;21.80;99.90
31207;DHT22;17834;52.992;8.856;2023-07-13T14:20:49;21.90;99.90
31207;DHT22;17834;52.992;8.856;2023-07-13T14:23:16;21.90;99.90
31207;DHT22;17834;52.992;8.856;2023-07-13T14:25:44;21.80;99.90
31207;DHT22;17834;52.992;8.856;2023-07-13T14:28:25;21.70;99.90
31207;DHT22;17834;52.992;8.856;2023-07-13T14:30:52;21.60;99.90
31207;DHT22;17834;52.992;8.856;2023-07-13T14:33:18;21.50;99.90
31207;DHT22;17834;52.992;8.856;2023-07-13T14:35:44;21.40;99.90
31207;DHT22;17834;52.992;8.856;2023-07-13T14:38:16;21.50;99.90
31207;DHT22;17834;52.992;8.856;2023-07-13T14:40:43;21.20;99.90
31207;DHT22;17834;52.992;8.856;2023-07-13T14:43:13;21.10;99.90
31207;DHT22;17834;52.992;8.856;2023-07-13T14:45:44;20.80;99.90
31207;DHT22;17834;52.992;8.856;2023-07-13T14:48:19;20.80;99.90
31207;DHT22;17834;52.992;8.856;2023-07-13T14:50:45;20.60;99.90
31207;DHT22;17834;52.992;8.856;2023-07-13T14:53:12;20.60;99.90
31207;DHT22;17834;52.992;8.856;2023-07-13T14:55:38;20.60;99.90
31207;DHT22;17834;52.992;8.856;2023-07-13T14:58:03;20.60;99.90
31207;DHT22;17834;52.992;8.856;2023-07-13T15:00:29;20.60;99.90
31207;DHT22;17834;52.992;8.856;2023-07-13T15:02:57;20.60;99.90
31207;DHT22;17834;52.992;8.856;2023-07-13T15:05:27;20.50;99.90
31207;DHT22;17834;52.992;8.856;2023-07-13T15:07:56;20.50;99.90
31207;DHT22;17834;52.992;8.856;2023-07-13T15:10:25;20.40;99.90
31207;DHT22;17834;52.992;8.856;2023-07-13T15:12:58;20.50;99.90
31207;DHT22;17834;52.992;8.856;2023-07-13T15:15:24;20.70;99.90
31207;DHT22;17834;52.992;8.856;2023-07-13T15:17:49;20.80;99.90
31207;DHT22;17834;52.992;8.856;2023-07-13T15:22:47;21.30;99.90
31207;DHT22;17834;52.992;8.856;2023-07-13T15:25:25;21.50;99.90
31207;DHT22;17834;52.992;8.856;2023-07-13T15:27:53;21.60;99.90
31207;DHT22;17834;52.992;8.856;2023-07-13T15:30:19;21.80;99.90
31207;DHT22;17834;52.992;8.856;2023-07-13T15:32:45;22.00;99.90
31207;DHT22;17834;52.992;8.856;2023-07-13T15:35:19;22.10;99.90
31207;DHT22;17834;52.992;8.856;2023-07-13T15:37:45;21.70;99.90
31207;DHT22;17834;52.992;8.856;2023-07-13T15:40:12;21.60;99.90
31207;DHT22;17834;52.992;8.856;2023-07-13T15:42:39;21.30;99.90
31207;DHT22;17834;52.992;8.856;2023-07-13T15:45:21;20.80;99.90
31207;DHT22;17834;52.992;8.856;2023-07-13T15:47:48;20.30;99.90
31207;DHT22;17834;52.992;8.856;2023-07-13T15:50:22;19.70;99.90
31207;DHT22;17834;52.992;8.856;2023-07-13T15:52:52;19.10;99.90
31207;DHT22;17834;52.992;8.856;2023-07-13T15:55:19;18.60;99.90
31207;DHT22;17834;52.992;8.856;2023-07-13T15:57:52;18.10;99.90
31207;DHT22;17834;52.992;8.856;2023-07-13T16:02:47;17.20;99.90
31207;DHT22;17834;52.992;8.856;2023-07-13T16:05:13;16.70;99.90
31207;DHT22;17834;52.992;8.856;2023-07-13T16:07:42;16.50;99.90
31207;DHT22;17834;52.992;8.856;2023-07-13T16:10:12;16.00;99.90
31207;DHT22;17834;52.992;8.856;2023-07-13T16:12:38;15.80;99.90
31207;DHT22;17834;52.992;8.856;2023-07-13T16:15:09;15.50;99.90